Lexington, Virginia
Current Conditions -  °F | °C
As of 1:55 PM on Friday 31 Oct 2014 (Local Time) from KHSP Reporting Station
Overcast Overcast  
Wind Chill: 39°   Ceiling: 1800
Heat Index: 39°   Visibility: 10mi
Dew Point: 31°   Wind: 3mph
Humidity: 73%   Direction: 140°SE
Pressure: 29.82"   Gusts: NA
Location:  37.79°N, 79.44°W
Report Text: KHSP 311755Z AUTO 14003KT 10SM BKN018 OVC024 04/00 A2982 RMK AO2 T00401005 10044 20007
Loading
Personal Weather Stations






























Interactive Weather Map New forecast layout! Learn more

10-Day Weather Forecast

Advertisements
Track Severe Weather on mobile